Time;durP1;ratioP1;P1;durP2;ratioP2;P2;SDS_P1;SDS_P2;PMS_P1;PMS_P2;Temp;Humidity;BMP_temperature;BMP_pressure;BME280_temperature;BME280_humidity;BME280_pressure;Samples;Min_cycle;Max_cycle;Signal;HPM_P1;HPM_P2
2023/10/08 00:01:14;;;;;;;0.08;0.00;;;;;;;4.98;58.15;100950.69;5074774;28;20068;-75
2023/10/08 00:03:48;;;;;;;0.30;0.00;;;;;;;4.96;58.22;100952.38;5070588;28;20539;-74
2023/10/08 00:06:15;;;;;;;0.10;0.00;;;;;;;4.97;58.12;100961.88;5066775;28;20044;-74
2023/10/08 00:08:43;;;;;;;0.20;0.00;;;;;;;4.98;58.23;100961.03;5076267;28;20420;-74
2023/10/08 00:11:11;;;;;;;0.00;0.00;;;;;;;4.95;58.14;100971.34;5073001;28;20044;-75
2023/10/08 00:13:41;;;;;;;0.05;0.00;;;;;;;4.95;58.30;100968.75;5075321;28;20052;-74
2023/10/08 00:16:10;;;;;;;0.98;0.00;;;;;;;4.94;58.30;100975.66;5074883;28;20406;-74
2023/10/08 00:18:41;;;;;;;3.15;0.00;;;;;;;4.94;58.18;100977.38;5074381;28;20132;-77
2023/10/08 00:21:17;;;;;;;0.30;0.00;;;;;;;4.94;58.03;100974.78;5085325;28;20059;-78
2023/10/08 00:23:52;;;;;;;0.20;0.00;;;;;;;4.92;58.47;100971.31;5083179;28;20543;-78
2023/10/08 00:26:27;;;;;;;;;;;;;;;4.91;58.42;100979.94;5081840;28;20044;-78
2023/10/08 00:28:55;;;;;;;0.00;0.00;;;;;;;4.88;58.26;100985.09;5080166;28;20014;-77
2023/10/08 00:31:25;;;;;;;0.10;0.00;;;;;;;4.87;58.32;100979.06;5079243;28;20050;-77
2023/10/08 00:33:54;;;;;;;2.45;0.00;;;;;;;4.86;58.51;100982.50;5071563;28;20110;-77
2023/10/08 00:36:21;;;;;;;2.00;0.08;;;;;;;4.85;58.34;100985.09;5060509;28;20037;-78
2023/10/08 00:38:50;;;;;;;0.00;0.00;;;;;;;4.84;58.52;100991.09;5057814;28;20055;-77
2023/10/08 00:41:21;;;;;;;2.47;0.00;;;;;;;4.84;58.58;100991.09;5058173;28;20049;-77
2023/10/08 00:43:48;;;;;;;0.00;0.00;;;;;;;4.81;58.62;100981.63;5053225;28;20441;-78
2023/10/08 00:46:22;;;;;;;0.32;0.00;;;;;;;4.81;58.53;100980.72;5060230;28;20765;-77
2023/10/08 00:48:51;;;;;;;1.33;0.20;;;;;;;4.73;58.39;100976.34;5056252;28;20045;-77
2023/10/08 00:51:32;;;;;;;0.10;0.00;;;;;;;4.79;58.54;100985.91;5057901;28;20048;-78
2023/10/08 00:54:05;;;;;;;0.10;0.00;;;;;;;4.78;58.74;100994.53;5061011;28;20044;-77
2023/10/08 00:56:49;;;;;;;0.55;0.00;;;;;;;4.77;58.56;101002.25;5051307;28;20055;-77
2023/10/08 00:59:20;;;;;;;0.17;0.00;;;;;;;4.71;58.68;100978.06;5052501;28;20552;-78
2023/10/08 01:01:51;;;;;;;0.10;0.00;;;;;;;4.75;58.66;101004.81;5053083;28;20068;-77
2023/10/08 01:04:22;;;;;;;0.95;0.00;;;;;;;4.75;58.66;100994.47;5059934;28;20044;-77
2023/10/08 01:06:53;;;;;;;0.00;0.00;;;;;;;4.69;58.73;100978.91;5053746;28;20649;-77
2023/10/08 01:09:31;;;;;;;0.68;0.08;;;;;;;4.75;58.88;100989.28;5052859;28;20059;-79
2023/10/08 01:12:21;;;;;;;0.03;0.00;;;;;;;4.74;59.04;100992.75;5050628;28;20927;-79
2023/10/08 01:14:49;;;;;;;0.00;0.00;;;;;;;4.71;58.83;100996.16;5051172;28;20654;-79
2023/10/08 01:17:19;;;;;;;0.10;0.00;;;;;;;4.70;58.78;100999.63;5052369;28;20168;-79
2023/10/08 01:19:50;;;;;;;0.03;0.00;;;;;;;4.67;59.02;100993.56;5061573;28;20405;-79
2023/10/08 01:22:21;;;;;;;0.08;0.00;;;;;;;4.68;58.87;100993.56;5063341;28;20040;-79
2023/10/08 01:24:49;;;;;;;0.15;0.00;;;;;;;4.67;58.84;100990.97;5053413;28;20067;-78
2023/10/08 01:27:21;;;;;;;0.00;0.00;;;;;;;4.66;58.82;100997.84;5058210;28;20048;-80
2023/10/08 01:29:50;;;;;;;0.13;0.00;;;;;;;4.65;58.87;100998.72;5058946;28;20048;-81
2023/10/08 01:32:17;;;;;;;2.28;0.00;;;;;;;4.65;59.04;101003.88;5059693;28;20060;-81
2023/10/08 01:34:46;;;;;;;0.80;0.00;;;;;;;4.64;58.74;101002.16;5071111;28;20055;-81
2023/10/08 01:37:16;;;;;;;0.60;0.10;;;;;;;4.65;58.80;101008.19;5083047;28;20062;-80
2023/10/08 01:39:45;;;;;;;0.43;0.00;;;;;;;4.64;59.08;101001.28;5082022;28;20131;-80
2023/10/08 01:42:17;;;;;;;0.57;0.10;;;;;;;4.64;58.75;101007.34;5072822;28;20048;-81
2023/10/08 01:44:47;;;;;;;0.88;0.10;;;;;;;4.63;58.86;100996.97;5076918;28;20131;-81
2023/10/08 01:47:15;;;;;;;0.43;0.05;;;;;;;4.53;58.76;100983.09;5079256;28;20984;-82
2023/10/08 01:49:44;;;;;;;2.05;0.10;;;;;;;4.61;58.93;101004.72;5076516;28;20142;-82
2023/10/08 01:52:17;;;;;;;0.10;0.10;;;;;;;4.60;58.76;100990.03;5076416;28;20084;-81
2023/10/08 01:54:46;;;;;;;0.98;0.00;;;;;;;4.61;58.93;101002.13;5081986;28;20044;-80
2023/10/08 01:57:12;;;;;;;0.20;0.00;;;;;;;4.60;58.87;100991.75;5076765;28;20047;-80
2023/10/08 01:59:39;;;;;;;0.30;0.00;;;;;;;4.59;58.97;100985.72;5077934;28;20052;-81
2023/10/08 02:02:07;;;;;;;3.05;0.10;;;;;;;4.58;59.18;101002.09;5067118;28;20051;-82
2023/10/08 02:04:35;;;;;;;0.20;0.00;;;;;;;4.60;59.21;100999.53;5084922;28;20115;-81
2023/10/08 02:07:07;;;;;;;0.05;0.00;;;;;;;4.59;59.11;101003.84;5074959;28;20041;-80
2023/10/08 02:09:34;;;;;;;0.65;0.00;;;;;;;4.58;59.06;101006.38;5075524;28;20988;-81
2023/10/08 02:12:03;;;;;;;0.20;0.10;;;;;;;4.59;59.04;101002.97;5082832;28;20127;-79
2023/10/08 02:14:31;;;;;;;0.55;0.10;;;;;;;4.57;59.10;101002.94;5076214;28;20044;-81
2023/10/08 02:17:01;;;;;;;0.22;0.00;;;;;;;4.57;59.31;101013.28;5084233;28;20126;-81
2023/10/08 02:19:28;;;;;;;0.30;0.00;;;;;;;4.55;59.07;101002.06;5069617;28;20052;-73
2023/10/08 02:21:55;;;;;;;0.20;0.20;;;;;;;4.56;59.10;101008.97;5068441;28;20115;-77
2023/10/08 02:24:24;;;;;;;1.00;0.00;;;;;;;4.56;59.28;101008.13;5067908;28;21169;-74
2023/10/08 02:26:52;;;;;;;1.05;0.00;;;;;;;4.55;59.23;101017.56;5072916;28;20465;-72
2023/10/08 02:29:20;;;;;;;1.45;0.00;;;;;;;4.55;59.15;101017.56;5067107;28;20774;-72
2023/10/08 02:31:47;;;;;;;0.30;0.10;;;;;;;4.54;59.19;101020.16;5068289;28;20063;-73
2023/10/08 02:34:15;;;;;;;1.73;0.00;;;;;;;4.49;59.16;101017.50;5068213;28;20056;-72
2023/10/08 02:36:42;;;;;;;0.28;0.05;;;;;;;4.47;59.23;101017.50;5070446;28;20592;-72
2023/10/08 02:39:17;;;;;;;0.65;0.03;;;;;;;4.47;59.17;101014.94;5071544;28;20098;-72
2023/10/08 02:41:46;;;;;;;0.65;0.65;;;;;;;4.51;59.31;101042.56;5067302;28;20082;-73
2023/10/08 02:44:14;;;;;;;0.10;0.00;;;;;;;4.50;59.31;101035.66;5069247;28;20047;-72
2023/10/08 02:46:44;;;;;;;1.05;0.00;;;;;;;4.50;59.40;101021.84;5067278;28;20080;-72
2023/10/08 02:49:12;;;;;;;0.80;0.10;;;;;;;4.49;59.15;101044.25;5072620;28;20582;-72
2023/10/08 02:51:40;;;;;;;0.10;0.00;;;;;;;4.49;59.56;101033.03;5065673;28;20105;-73
2023/10/08 02:54:16;;;;;;;1.65;0.00;;;;;;;4.45;59.47;101026.97;5077023;28;20097;-72
2023/10/08 02:56:45;;;;;;;0.57;0.10;;;;;;;4.49;59.62;101040.78;5067454;28;20051;-72
2023/10/08 02:59:13;;;;;;;0.57;0.00;;;;;;;4.50;59.39;101042.56;5072765;28;20504;-74
2023/10/08 03:01:42;;;;;;;3.50;0.10;;;;;;;4.48;59.51;101034.75;5062623;28;20137;-73
2023/10/08 03:04:17;;;;;;;6.03;0.10;;;;;;;4.50;59.45;101045.13;5070691;28;20036;-72
2023/10/08 03:06:44;;;;;;;0.28;0.00;;;;;;;4.48;59.70;101047.69;5068464;28;20052;-73
2023/10/08 03:09:13;;;;;;;1.10;0.00;;;;;;;4.47;59.49;101053.72;5074117;28;20531;-73
2023/10/08 03:11:46;;;;;;;0.10;0.00;;;;;;;4.46;59.48;101044.22;5068282;28;20048;-72
2023/10/08 03:14:21;;;;;;;0.55;0.08;;;;;;;4.48;59.76;101054.59;5068275;28;20045;-73
2023/10/08 03:16:52;;;;;;;0.03;0.00;;;;;;;4.48;59.75;101058.03;5062766;28;20139;-73
2023/10/08 03:19:22;;;;;;;1.33;0.05;;;;;;;4.46;59.57;101043.34;5069050;28;20055;-73
2023/10/08 03:21:55;;;;;;;3.20;0.00;;;;;;;4.46;59.66;101062.31;5065853;28;20489;-73
2023/10/08 03:24:37;;;;;;;1.48;0.13;;;;;;;4.48;59.94;101063.22;5066514;28;20048;-72
2023/10/08 03:27:12;;;;;;;0.75;0.10;;;;;;;4.45;60.14;101058.00;5067244;28;20083;-73
2023/10/08 03:29:41;;;;;;;0.10;0.00;;;;;;;4.48;60.20;101062.34;5077495;28;20040;-81
2023/10/08 03:32:15;;;;;;;0.38;0.00;;;;;;;4.45;59.98;101064.91;5080410;28;20386;-80
2023/10/08 03:34:46;;;;;;;0.95;0.00;;;;;;;4.44;59.97;101066.63;5075414;28;20097;-81
2023/10/08 03:37:20;;;;;;;1.40;0.05;;;;;;;4.44;59.87;101071.81;5073403;28;20044;-80
2023/10/08 03:40:07;;;;;;;1.65;0.00;;;;;;;4.43;60.10;101082.13;5082367;28;20052;-81
2023/10/08 03:42:40;;;;;;;1.25;0.03;;;;;;;4.45;60.06;101088.19;5066669;28;20044;-81
2023/10/08 03:45:12;;;;;;;0.40;0.00;;;;;;;4.43;59.80;101085.56;5083768;28;20044;-81
2023/10/08 03:47:46;;;;;;;1.35;0.10;;;;;;;4.43;59.96;101095.06;5077457;28;20381;-77
2023/10/08 03:50:17;;;;;;;2.28;1.15;;;;;;;4.41;60.07;101107.09;5069714;28;20044;-75
2023/10/08 03:52:44;;;;;;;0.45;0.00;;;;;;;4.42;60.02;101106.25;5076463;28;20076;-74
2023/10/08 03:55:21;;;;;;;0.40;0.00;;;;;;;4.42;60.13;101108.84;5070319;28;20063;-75
2023/10/08 03:57:56;;;;;;;1.48;0.10;;;;;;;4.42;60.02;101116.59;5071859;28;20052;-75
2023/10/08 04:00:31;;;;;;;0.20;0.00;;;;;;;4.42;60.24;101109.72;5072134;28;20040;-75
2023/10/08 04:03:07;;;;;;;2.47;0.00;;;;;;;4.42;60.20;101111.44;5069293;28;20048;-76
2023/10/08 04:05:44;;;;;;;0.68;0.00;;;;;;;4.41;60.30;101101.91;5069727;28;20048;-76
2023/10/08 04:08:24;;;;;;;0.10;0.00;;;;;;;4.40;60.41;101110.53;5065530;28;20090;-75
2023/10/08 04:11:27;;;;;;;1.25;0.05;;;;;;;4.36;60.63;101109.63;5072495;28;20509;-75
2023/10/08 04:13:54;;;;;;;0.40;0.00;;;;;;;4.38;60.59;101115.69;5072203;28;20052;-75
2023/10/08 04:16:21;;;;;;;0.10;0.00;;;;;;;4.38;60.37;101115.69;5068898;28;21763;-75
2023/10/08 04:18:55;;;;;;;2.75;0.10;;;;;;;4.39;60.20;101139.84;5076330;28;20060;-75
2023/10/08 04:21:27;;;;;;;0.10;0.00;;;;;;;4.39;60.23;101132.94;5070964;28;20128;-75
2023/10/08 04:23:54;;;;;;;0.28;0.00;;;;;;;4.37;60.59;101132.06;5073244;28;20080;-75
2023/10/08 04:26:23;;;;;;;3.28;0.10;;;;;;;4.39;60.59;101134.69;5068360;28;20449;-75
2023/10/08 04:28:54;;;;;;;0.13;0.00;;;;;;;4.35;60.72;101132.88;5076405;28;20448;-75
2023/10/08 04:31:24;;;;;;;1.42;0.00;;;;;;;4.38;60.51;101143.25;5073497;28;20055;-75
2023/10/08 04:33:54;;;;;;;0.85;0.15;;;;;;;4.26;60.24;101133.63;5068400;28;20405;-75
2023/10/08 04:36:21;;;;;;;0.88;0.00;;;;;;;4.39;60.45;101150.19;5072478;28;20055;-75
2023/10/08 04:38:54;;;;;;;0.10;0.00;;;;;;;4.38;60.54;101154.47;5065851;28;20052;-76
2023/10/08 04:41:27;;;;;;;0.93;0.08;;;;;;;4.37;60.40;101172.56;5074262;28;20056;-75
2023/10/08 04:43:55;;;;;;;0.00;0.00;;;;;;;4.36;60.40;101176.88;5067949;28;20040;-75
2023/10/08 04:46:39;;;;;;;0.10;0.00;;;;;;;4.36;60.61;101182.06;5074631;28;20076;-75
2023/10/08 04:49:18;;;;;;;1.17;0.10;;;;;;;4.37;60.40;101182.94;5071949;28;20056;-75
2023/10/08 04:51:45;;;;;;;2.08;0.00;;;;;;;4.37;60.62;101188.09;5068601;28;20051;-75
2023/10/08 04:54:16;;;;;;;2.20;0.10;;;;;;;4.34;60.50;101185.47;5072372;28;20040;-75
2023/10/08 04:56:44;;;;;;;1.35;0.10;;;;;;;4.37;60.42;101198.44;5068076;28;20050;-75
2023/10/08 04:59:11;;;;;;;1.83;0.00;;;;;;;4.36;60.56;101197.56;5085664;28;20101;-78
2023/10/08 05:01:47;;;;;;;0.10;0.00;;;;;;;4.36;60.51;101191.53;5067778;28;20048;-78
2023/10/08 05:04:26;;;;;;;;;;;;;;;4.37;60.55;101208.78;5080124;28;20051;-78
2023/10/08 05:07:03;;;;;;;1.10;0.00;;;;;;;4.37;60.63;101203.63;5081721;28;19932;-78
2023/10/08 05:09:46;;;;;;;1.38;0.10;;;;;;;4.35;60.71;101213.91;5081331;28;20083;-78
2023/10/08 05:12:30;;;;;;;4.25;0.10;;;;;;;4.36;60.63;101202.75;5085284;28;20051;-79
2023/10/08 05:15:21;;;;;;;0.50;0.00;;;;;;;4.36;60.67;101214.81;5076923;28;20137;-78
2023/10/08 05:17:56;;;;;;;0.35;0.25;;;;;;;4.36;60.62;101217.41;5073868;28;20125;-77
2023/10/08 05:20:58;;;;;;;0.10;0.00;;;;;;;4.36;60.86;101231.19;5077864;28;20044;-78
2023/10/08 05:23:53;;;;;;;0.28;0.03;;;;;;;4.37;60.74;101224.31;5076482;28;20698;-79
2023/10/08 05:26:30;;;;;;;0.00;0.00;;;;;;;4.34;60.84;101232.03;5079152;28;20508;-78
2023/10/08 05:29:01;;;;;;;0.43;0.08;;;;;;;4.37;61.01;101245.00;5076577;28;20048;-77
2023/10/08 05:31:46;;;;;;;1.00;0.00;;;;;;;4.36;60.91;101238.97;5082182;28;20048;-77
2023/10/08 05:34:18;;;;;;;;;;;;;;;4.39;60.84;101244.19;5076859;28;20403;-77
2023/10/08 05:37:11;;;;;;;0.15;0.00;;;;;;;4.38;61.00;101244.13;5075871;28;20289;-78
2023/10/08 05:39:41;;;;;;;0.00;0.00;;;;;;;4.39;60.70;101238.13;5078715;28;20066;-78
2023/10/08 05:42:16;;;;;;;2.22;0.00;;;;;;;4.41;61.27;101257.13;5081337;28;20194;-78
2023/10/08 05:44:46;;;;;;;1.75;0.08;;;;;;;4.41;60.98;101267.47;5076798;28;20072;-78
2023/10/08 05:47:37;;;;;;;0.10;0.00;;;;;;;4.41;61.02;101263.19;5074941;28;20048;-78
2023/10/08 05:53:15;;;;;;;0.47;0.00;;;;;;;4.45;61.04;101279.59;4970790;28;20054;-74
2023/10/08 05:55:47;;;;;;;1.63;0.10;;;;;;;4.46;60.99;101279.63;5054957;28;20469;-74
2023/10/08 05:58:24;;;;;;;0.30;0.00;;;;;;;4.48;61.03;101290.00;5068003;28;20169;-73
2023/10/08 06:01:08;;;;;;;1.38;0.20;;;;;;;4.51;60.99;101269.34;5072195;28;20501;-73
2023/10/08 06:03:48;;;;;;;0.65;0.05;;;;;;;4.51;61.12;101290.03;5067705;28;20036;-73
2023/10/08 06:06:36;;;;;;;0.10;0.00;;;;;;;4.51;61.03;101290.91;5068136;28;20041;-74
2023/10/08 06:09:20;;;;;;;0.32;0.10;;;;;;;4.53;61.06;101293.53;5072172;28;20045;-78
2023/10/08 06:12:07;;;;;;;3.22;0.10;;;;;;;4.55;61.00;101304.75;5078063;28;20071;-79
2023/10/08 06:17:34;;;;;;;0.13;0.03;;;;;;;4.60;61.07;101303.09;5072782;28;20515;-79
2023/10/08 06:20:01;;;;;;;1.15;0.05;;;;;;;4.60;60.78;101316.03;5079844;28;20063;-77
2023/10/08 06:22:36;;;;;;;;;;;;;;;4.63;60.99;101329.03;5079329;28;20040;-78
2023/10/08 06:25:18;;;;;;;0.10;0.00;;;;;;;4.64;61.12;101316.94;5075171;28;20395;-79
2023/10/08 06:27:45;;;;;;;0.45;0.00;;;;;;;4.65;61.15;101319.56;5077291;28;20040;-79
2023/10/08 06:30:16;;;;;;;0.00;0.00;;;;;;;4.68;60.98;101332.56;5075198;28;20047;-79
2023/10/08 06:32:45;;;;;;;1.00;0.00;;;;;;;4.67;61.00;101328.22;5080188;28;20530;-78
2023/10/08 06:35:17;;;;;;;0.35;0.00;;;;;;;4.54;61.02;101304.75;5081090;28;20094;-79
2023/10/08 06:37:45;;;;;;;1.95;0.00;;;;;;;4.70;60.81;101354.16;5072903;28;21049;-78
2023/10/08 06:40:40;;;;;;;1.35;0.10;;;;;;;4.74;60.76;101345.56;5077441;28;20048;-78
2023/10/08 06:43:14;;;;;;;1.17;0.00;;;;;;;4.79;60.77;101349.97;5075781;28;20046;-78
2023/10/08 06:45:43;;;;;;;1.58;0.00;;;;;;;4.81;60.70;101345.66;5072648;28;20130;-78
2023/10/08 06:48:17;;;;;;;2.08;0.25;;;;;;;4.82;60.95;101345.69;5080074;28;20101;-79
2023/10/08 06:50:45;;;;;;;0.35;0.00;;;;;;;4.86;61.05;101349.19;5071716;28;20067;-78
2023/10/08 06:53:13;;;;;;;0.10;0.00;;;;;;;4.88;60.61;101363.03;5077443;28;20048;-79
2023/10/08 06:55:43;;;;;;;0.47;0.00;;;;;;;4.90;60.72;101353.59;5071988;28;20040;-79
2023/10/08 06:58:11;;;;;;;1.17;0.10;;;;;;;4.93;60.68;101364.84;5075549;28;20056;-79
2023/10/08 07:00:39;;;;;;;0.03;0.00;;;;;;;4.97;60.75;101360.56;5072819;28;20139;-75
2023/10/08 07:03:10;;;;;;;0.28;0.00;;;;;;;5.00;60.47;101367.50;5068325;28;20048;-75
2023/10/08 07:05:40;;;;;;;1.48;0.00;;;;;;;5.03;60.72;101378.78;5073924;28;20052;-75
2023/10/08 07:08:12;;;;;;;0.10;0.00;;;;;;;5.06;61.16;101373.63;5069760;28;20621;-76
2023/10/08 07:10:42;;;;;;;0.10;0.00;;;;;;;5.08;60.61;101379.72;5076690;28;20101;-75
2023/10/08 07:13:10;;;;;;;1.25;0.00;;;;;;;5.13;60.88;101375.47;5075193;28;20071;-76
2023/10/08 07:15:40;;;;;;;1.83;0.10;;;;;;;5.18;60.79;101384.19;5071345;28;20048;-75
2023/10/08 07:18:12;;;;;;;0.00;0.00;;;;;;;5.24;60.96;101382.53;5072309;28;20040;-72
2023/10/08 07:20:41;;;;;;;0.85;0.10;;;;;;;5.27;60.93;101403.28;5072822;28;20126;-72
2023/10/08 07:23:19;;;;;;;0.47;0.10;;;;;;;5.32;60.90;101386.94;5068107;28;20544;-73
2023/10/08 07:25:53;;;;;;;0.20;0.00;;;;;;;5.42;60.76;101416.44;5065873;28;20049;-74
2023/10/08 07:28:21;;;;;;;0.00;0.00;;;;;;;5.47;60.75;101406.13;5067468;28;20055;-74
2023/10/08 07:30:52;;;;;;;1.13;0.10;;;;;;;5.56;60.69;101417.47;5064606;28;20048;-73
2023/10/08 07:33:19;;;;;;;0.30;0.10;;;;;;;5.62;60.34;101430.50;5069391;28;20163;-73
2023/10/08 07:35:56;;;;;;;0.10;0.00;;;;;;;5.71;60.27;101432.34;5066104;28;20046;-73
2023/10/08 07:38:26;;;;;;;2.28;0.00;;;;;;;5.81;60.49;101443.69;5068304;28;20086;-74
2023/10/08 07:40:55;;;;;;;2.20;0.00;;;;;;;5.87;60.50;101438.59;5065707;28;20556;-75
2023/10/08 07:43:23;;;;;;;0.65;0.10;;;;;;;5.97;60.26;101447.34;5066543;28;20559;-72
2023/10/08 07:45:53;;;;;;;0.40;0.00;;;;;;;6.04;59.86;101442.25;5064834;28;20044;-73
2023/10/08 07:48:22;;;;;;;1.92;0.10;;;;;;;6.13;59.89;101440.63;5070658;28;20080;-72
2023/10/08 07:50:50;;;;;;;1.83;0.03;;;;;;;6.18;59.40;101449.34;5064083;28;20087;-72
2023/10/08 07:53:18;;;;;;;0.55;0.00;;;;;;;6.30;59.53;101454.63;5064966;28;20537;-72
2023/10/08 07:55:47;;;;;;;0.60;0.00;;;;;;;6.36;58.88;101457.28;5067358;28;20044;-73
2023/10/08 07:58:19;;;;;;;0.95;0.00;;;;;;;6.45;59.26;101448.72;5065962;28;20044;-72
2023/10/08 08:00:52;;;;;;;0.52;0.30;;;;;;;6.51;58.91;101460.00;5068380;28;20036;-73
2023/10/08 08:03:22;;;;;;;0.52;0.00;;;;;;;6.56;58.71;101452.28;5066474;28;20048;-72
2023/10/08 08:05:52;;;;;;;1.30;0.00;;;;;;;6.66;58.56;101463.59;5068671;28;20051;-72
2023/10/08 08:08:22;;;;;;;0.10;0.00;;;;;;;6.74;58.36;101461.94;5072954;28;20124;-76
2023/10/08 08:10:57;;;;;;;1.80;0.08;;;;;;;6.80;58.15;101466.31;5078393;28;20093;-76
2023/10/08 08:13:27;;;;;;;0.10;0.00;;;;;;;6.84;57.95;101466.38;5075587;28;20167;-76
2023/10/08 08:15:58;;;;;;;1.52;0.00;;;;;;;6.90;57.30;101483.72;5077919;28;20094;-77
2023/10/08 08:18:32;;;;;;;0.17;0.08;;;;;;;6.94;57.56;101475.09;5080325;28;20097;-77
2023/10/08 08:21:02;;;;;;;0.83;0.00;;;;;;;6.99;57.68;101479.47;5079871;28;20048;-76
2023/10/08 08:23:30;;;;;;;0.65;0.00;;;;;;;7.03;57.36;101493.38;5079529;28;20323;-77
2023/10/08 08:26:11;;;;;;;0.20;0.10;;;;;;;7.08;57.39;101496.84;5079718;28;20085;-76
2023/10/08 08:28:38;;;;;;;2.70;0.00;;;;;;;7.13;57.37;101483.91;5077002;28;20044;-77
2023/10/08 08:31:14;;;;;;;0.28;0.03;;;;;;;7.14;57.22;101501.22;5075535;28;20062;-77
2023/10/08 08:36:25;;;;;;;0.10;0.00;;;;;;;7.20;57.12;101503.88;5072449;28;20467;-77
2023/10/08 08:38:53;;;;;;;0.82;0.00;;;;;;;7.21;56.90;101511.66;5076619;28;20400;-77
2023/10/08 08:41:20;;;;;;;1.42;0.03;;;;;;;7.24;56.16;101512.56;5084571;28;20039;-77
2023/10/08 08:43:56;;;;;;;0.85;0.00;;;;;;;7.21;56.30;101495.22;5078766;28;20059;-77
2023/10/08 08:46:29;;;;;;;1.77;0.05;;;;;;;7.28;56.13;101524.69;5074928;28;20097;-78
2023/10/08 08:48:58;;;;;;;2.35;0.00;;;;;;;7.29;55.83;101516.94;5077920;28;20052;-77
2023/10/08 08:51:25;;;;;;;0.68;0.20;;;;;;;7.32;55.87;101519.53;5077215;28;20047;-77
2023/10/08 08:53:52;;;;;;;2.63;0.10;;;;;;;7.36;56.31;101529.09;5072661;28;20055;-78
2023/10/08 08:56:19;;;;;;;0.88;0.10;;;;;;;7.40;56.29;101527.41;5078727;28;20043;-76
2023/10/08 08:58:47;;;;;;;0.30;0.00;;;;;;;7.41;55.86;101524.81;5077772;28;20036;-77
2023/10/08 09:01:17;;;;;;;0.30;0.00;;;;;;;7.38;55.92;101514.38;5079404;28;20566;-78
2023/10/08 09:03:48;;;;;;;0.43;0.00;;;;;;;7.45;55.81;101538.69;5075771;28;20044;-76
2023/10/08 09:06:15;;;;;;;3.17;0.20;;;;;;;7.49;55.78;101531.78;5076345;28;20044;-77
2023/10/08 09:08:45;;;;;;;2.50;0.08;;;;;;;7.51;55.32;101553.44;5074259;28;20047;-77
2023/10/08 09:11:15;;;;;;;0.10;0.00;;;;;;;7.52;55.70;101553.47;5077776;28;20053;-77
2023/10/08 09:13:43;;;;;;;1.45;0.00;;;;;;;7.51;55.20;101545.66;5080133;28;20064;-77
2023/10/08 09:16:19;;;;;;;2.50;0.10;;;;;;;7.56;55.90;101565.63;5077348;28;20439;-77
2023/10/08 09:18:49;;;;;;;0.52;0.00;;;;;;;7.61;55.48;101563.06;5074474;28;20044;-72
2023/10/08 09:21:19;;;;;;;2.95;0.00;;;;;;;7.63;54.83;101582.16;5072590;28;20067;-72
2023/10/08 09:23:51;;;;;;;0.70;0.00;;;;;;;7.67;54.72;101570.91;5070643;28;20048;-73
2023/10/08 09:26:19;;;;;;;0.10;0.00;;;;;;;7.72;54.86;101577.00;5068638;28;20379;-73
2023/10/08 09:28:48;;;;;;;0.80;0.00;;;;;;;7.75;54.32;101582.22;5068560;28;20121;-74
2023/10/08 09:31:17;;;;;;;0.10;0.00;;;;;;;7.85;54.10;101576.22;5070055;28;20044;-73
2023/10/08 09:33:44;;;;;;;0.30;0.00;;;;;;;7.88;54.65;101577.94;5072587;28;20056;-73
2023/10/08 09:36:18;;;;;;;0.75;0.08;;;;;;;7.98;54.59;101569.34;5067443;28;20048;-73
2023/10/08 09:38:48;;;;;;;0.25;0.00;;;;;;;8.00;54.18;101577.16;5065413;28;20051;-75
2023/10/08 09:41:15;;;;;;;0.43;0.00;;;;;;;8.06;54.02;101585.00;5069386;28;20637;-73
2023/10/08 09:43:42;;;;;;;2.70;0.10;;;;;;;8.13;53.34;101597.16;5067633;28;20044;-73
2023/10/08 09:46:17;;;;;;;0.17;0.05;;;;;;;8.15;53.58;101592.84;5067846;28;20047;-72
2023/10/08 09:48:51;;;;;;;0.52;0.00;;;;;;;8.16;53.53;101609.31;5065735;28;20040;-73
2023/10/08 09:51:19;;;;;;;1.80;0.30;;;;;;;8.18;52.93;101611.06;5068964;28;20137;-74
2023/10/08 09:53:53;;;;;;;0.25;0.00;;;;;;;8.17;53.00;101606.75;5063944;28;20052;-74
2023/10/08 09:56:21;;;;;;;0.47;0.00;;;;;;;8.17;52.57;101611.94;5071919;28;20642;-73
2023/10/08 09:58:50;;;;;;;0.13;0.00;;;;;;;8.18;53.05;101621.47;5068895;28;20044;-73
2023/10/08 10:01:18;;;;;;;3.33;0.05;;;;;;;8.18;52.85;101623.22;5070523;28;20045;-72
2023/10/08 10:03:46;;;;;;;0.00;0.00;;;;;;;8.11;53.01;101625.78;5066086;28;20055;-73
2023/10/08 10:06:15;;;;;;;0.90;0.00;;;;;;;8.17;52.49;101622.34;5070595;28;20387;-74
2023/10/08 10:08:44;;;;;;;0.15;0.00;;;;;;;8.17;52.55;101637.06;5069206;28;20058;-73
2023/10/08 10:11:12;;;;;;;0.20;0.00;;;;;;;8.19;52.23;101630.16;5070500;28;20048;-74
2023/10/08 10:13:47;;;;;;;2.30;0.00;;;;;;;8.20;52.66;101637.97;5067750;28;20044;-73
2023/10/08 10:16:18;;;;;;;0.00;0.00;;;;;;;8.22;52.36;101640.56;5065792;28;20040;-74
2023/10/08 10:18:47;;;;;;;0.40;0.00;;;;;;;8.21;51.94;101644.03;5065483;28;20151;-73
2023/10/08 10:21:29;;;;;;;0.08;0.00;;;;;;;8.21;52.20;101650.13;5065007;28;20603;-74
2023/10/08 10:23:58;;;;;;;0.35;0.00;;;;;;;8.22;52.57;101646.63;5072393;28;20039;-73
2023/10/08 10:26:30;;;;;;;0.73;0.10;;;;;;;8.23;52.06;101643.19;5065756;28;20635;-73
2023/10/08 10:29:27;;;;;;;2.08;0.10;;;;;;;8.26;52.60;101642.34;5071306;28;21165;-74
2023/10/08 10:31:56;;;;;;;1.25;0.25;;;;;;;8.25;52.17;101646.69;4987384;28;20349;-73
2023/10/08 10:34:27;;;;;;;0.10;0.00;;;;;;;8.25;51.66;101640.59;5048909;28;20052;-72
2023/10/08 10:37:08;;;;;;;1.20;0.00;;;;;;;8.28;52.47;101654.50;5068562;28;20518;-72
2023/10/08 10:39:39;;;;;;;0.70;0.00;;;;;;;8.30;52.42;101657.09;5069502;28;20043;-72
2023/10/08 10:42:20;;;;;;;0.30;0.08;;;;;;;8.25;52.09;101641.47;5070844;28;20053;-72
2023/10/08 10:44:49;;;;;;;0.30;0.00;;;;;;;8.27;51.58;101655.34;5064519;28;20265;-73
2023/10/08 10:47:42;;;;;;;1.25;0.00;;;;;;;8.27;51.88;101647.53;5074028;28;20040;-72
2023/10/08 10:52:54;;;;;;;0.30;0.00;;;;;;;8.32;52.01;101658.84;5074886;28;20619;-88
2023/10/08 10:55:31;;;;;;;1.45;0.00;;;;;;;8.36;51.34;101664.06;5074582;28;20101;-89
2023/10/08 10:58:04;;;;;;;0.00;0.00;;;;;;;8.39;50.82;101664.13;5073651;28;20071;-88
2023/10/08 11:00:57;;;;;;;0.10;0.10;;;;;;;8.33;51.21;101654.50;5074100;28;20133;-87
2023/10/08 11:03:28;;;;;;;0.35;0.10;;;;;;;8.41;51.12;101665.00;5076573;28;20109;-86
2023/10/08 11:05:59;;;;;;;0.13;0.00;;;;;;;8.42;51.35;101664.13;5075152;28;20171;-85
2023/10/08 11:08:34;;;;;;;0.22;0.22;;;;;;;8.46;51.45;101674.56;5076287;28;20044;-88
2023/10/08 11:11:05;;;;;;;1.00;0.20;;;;;;;8.46;51.90;101671.13;5075932;28;20380;-89
2023/10/08 11:13:37;;;;;;;1.63;0.00;;;;;;;8.47;51.23;101678.06;5078517;28;20087;-89
2023/10/08 11:16:05;;;;;;;0.10;0.00;;;;;;;8.43;51.05;101661.56;5075208;28;20139;-86
2023/10/08 11:18:32;;;;;;;0.10;0.00;;;;;;;8.50;50.89;101680.66;5076418;28;20052;-86
2023/10/08 11:21:13;;;;;;;1.17;0.00;;;;;;;8.51;51.16;101687.63;5079179;28;20056;-87
2023/10/08 11:23:43;;;;;;;0.10;0.00;;;;;;;8.51;50.56;101682.44;5072088;28;20056;-86
2023/10/08 11:26:12;;;;;;;0.20;0.00;;;;;;;8.52;50.60;101694.56;5083457;28;20048;-89
2023/10/08 11:28:41;;;;;;;0.00;0.00;;;;;;;8.52;50.44;101702.38;5081832;28;20044;-87
2023/10/08 11:31:13;;;;;;;0.25;0.00;;;;;;;8.43;50.52;101687.59;5080465;28;20097;-89
2023/10/08 11:33:42;;;;;;;0.00;0.00;;;;;;;8.43;50.63;101682.38;5077839;28;20052;-85
2023/10/08 11:36:18;;;;;;;0.17;0.15;;;;;;;8.53;50.34;101710.19;5078789;28;20076;-88
2023/10/08 11:38:47;;;;;;;1.95;0.50;;;;;;;8.53;50.30;101704.13;5069316;28;20130;-73
2023/10/08 11:41:27;;;;;;;1.10;0.00;;;;;;;8.55;50.22;101707.59;5068239;28;20048;-74
2023/10/08 11:43:57;;;;;;;1.55;0.00;;;;;;;8.54;50.48;101711.94;5061449;28;20047;-73
2023/10/08 11:46:32;;;;;;;0.20;0.00;;;;;;;8.55;50.44;101712.81;5069981;28;20048;-72
2023/10/08 11:49:04;;;;;;;0.63;0.00;;;;;;;8.55;50.39;101703.25;5067312;28;20048;-73
2023/10/08 11:51:32;;;;;;;1.55;0.00;;;;;;;8.58;50.15;101715.44;5071072;28;20392;-72
2023/10/08 11:53:59;;;;;;;1.65;0.00;;;;;;;8.57;49.99;101711.09;5066846;28;20083;-73
2023/10/08 11:56:29;;;;;;;0.10;0.00;;;;;;;8.55;49.88;101718.03;5067467;28;20513;-72
2023/10/08 11:58:57;;;;;;;0.15;0.00;;;;;;;8.56;49.11;101722.34;5069254;28;20050;-72
2023/10/08 12:01:24;;;;;;;0.00;0.00;;;;;;;8.57;49.29;101711.09;5063959;28;20126;-72
2023/10/08 12:03:51;;;;;;;0.10;0.00;;;;;;;8.52;49.33;101718.00;5068611;28;20058;-72
2023/10/08 12:06:19;;;;;;;0.00;0.00;;;;;;;8.59;49.35;101722.38;5066038;28;20477;-72
2023/10/08 12:08:46;;;;;;;0.20;0.00;;;;;;;8.60;50.20;101718.06;5069755;28;20447;-73